createdAt,value
2022-08-11T00:01:10.618Z,98805.50
2022-08-11T00:03:45.630Z,98808.97
2022-08-11T00:06:15.009Z,98810.81
2022-08-11T00:08:45.790Z,98802.72
2022-08-11T00:11:17.133Z,98805.28
2022-08-11T00:13:47.743Z,98806.44
2022-08-11T00:16:19.450Z,98803.97
2022-08-11T00:18:48.518Z,98801.22
2022-08-11T00:21:17.359Z,98805.91
2022-08-11T00:23:47.623Z,98801.50
2022-08-11T00:26:16.981Z,98799.91
2022-08-11T00:28:44.818Z,98796.72
2022-08-11T00:31:25.354Z,98807.72
2022-08-11T00:33:54.568Z,98804.50
2022-08-11T00:36:29.801Z,98799.72
2022-08-11T00:39:06.082Z,98794.75
2022-08-11T00:41:37.886Z,98803.44
2022-08-11T00:44:23.044Z,98798.81
2022-08-11T00:47:00.755Z,98805.22
2022-08-11T00:49:40.592Z,98792.44
2022-08-11T00:52:22.462Z,98793.16
2022-08-11T00:55:11.429Z,98786.06
2022-08-11T00:57:58.237Z,98789.25
2022-08-11T01:00:33.240Z,98790.31
2022-08-11T01:03:18.550Z,98785.28
2022-08-11T01:06:05.269Z,98784.41
2022-08-11T01:09:22.537Z,98784.41
2022-08-11T01:12:19.222Z,98780.16
2022-08-11T01:15:19.682Z,98787.84
2022-08-11T01:18:22.847Z,98788.72
2022-08-11T01:21:19.947Z,98784.91
2022-08-11T01:24:24.106Z,98781.09
2022-08-11T01:27:18.871Z,98782.72
2022-08-11T01:30:21.436Z,98781.88
2022-08-11T01:33:23.220Z,98787.31
2022-08-11T01:36:48.294Z,98785.38
2022-08-11T01:39:53.275Z,98784.69
2022-08-11T01:43:05.470Z,98786.78
2022-08-11T01:45:42.458Z,98780.56
2022-08-11T01:48:21.677Z,98782.44
2022-08-11T01:51:09.661Z,98774.72
2022-08-11T01:54:03.420Z,98775.09
2022-08-11T01:56:43.866Z,98775.34
2022-08-11T01:59:17.973Z,98780.84
2022-08-11T02:02:00.475Z,98785.84
2022-08-11T02:04:39.471Z,98784.03
2022-08-11T02:07:18.206Z,98783.81
2022-08-11T02:10:01.866Z,98780.28
2022-08-11T02:12:52.177Z,98784.50
2022-08-11T02:15:28.831Z,98780.38
2022-08-11T02:18:06.832Z,98772.63
2022-08-11T02:21:00.393Z,98779.69
2022-08-11T02:24:06.804Z,98783.81
2022-08-11T02:26:40.442Z,98785.41
2022-08-11T02:29:19.551Z,98776.75
2022-08-11T02:32:29.781Z,98766.59
2022-08-11T02:35:06.001Z,98786.22
2022-08-11T02:37:45.204Z,98773.78
2022-08-11T02:40:23.677Z,98782.31
2022-08-11T02:43:02.864Z,98777.53
2022-08-11T02:45:46.209Z,98772.63
2022-08-11T02:48:40.759Z,98768.50
2022-08-11T02:51:21.930Z,98775.44
2022-08-11T02:54:00.664Z,98775.91
2022-08-11T02:56:44.364Z,98778.97
2022-08-11T02:59:41.501Z,98773.28
2022-08-11T03:02:18.737Z,98769.78
2022-08-11T03:05:02.398Z,98773.16
2022-08-11T03:07:35.769Z,98774.00
2022-08-11T03:10:10.963Z,98769.75
2022-08-11T03:13:06.651Z,98775.91
2022-08-11T03:16:04.587Z,98756.25
2022-08-11T03:18:41.150Z,98771.31
2022-08-11T03:21:15.702Z,98790.66
2022-08-11T03:23:51.463Z,98772.66
2022-08-11T03:26:29.311Z,98779.47
2022-08-11T03:29:06.114Z,98791.78
2022-08-11T03:31:38.338Z,98771.84
2022-08-11T03:34:09.187Z,98777.44
2022-08-11T03:37:16.861Z,98775.97
2022-08-11T03:39:58.744Z,98775.66
2022-08-11T03:42:33.608Z,98775.84
2022-08-11T03:45:10.316Z,98776.53
2022-08-11T03:47:55.507Z,98768.31
2022-08-11T03:50:51.870Z,98772.31
2022-08-11T03:53:36.798Z,98765.84
2022-08-11T03:56:23.879Z,98772.44
2022-08-11T03:59:35.837Z,98753.97
2022-08-11T04:02:40.230Z,98775.22
2022-08-11T04:05:51.136Z,98780.03
2022-08-11T04:08:55.521Z,98780.47
2022-08-11T04:11:47.968Z,98770.22
2022-08-11T04:15:01.398Z,98769.53
2022-08-11T04:18:00.583Z,98772.47
2022-08-11T04:20:50.566Z,98770.53
2022-08-11T04:24:33.353Z,98763.56
2022-08-11T04:26:58.325Z,98772.00
2022-08-11T04:30:09.258Z,98776.34
2022-08-11T04:33:12.598Z,98756.53
2022-08-11T04:35:54.088Z,98776.59
2022-08-11T04:38:59.353Z,98788.06
2022-08-11T04:42:11.098Z,98784.19
2022-08-11T04:45:13.227Z,98793.56
2022-08-11T04:48:24.954Z,98791.97
2022-08-11T04:51:26.894Z,98790.63
2022-08-11T04:54:28.305Z,98794.31
2022-08-11T04:57:21.238Z,98797.03
2022-08-11T05:00:24.460Z,98795.69
2022-08-11T05:03:37.935Z,98801.81
2022-08-11T05:06:29.701Z,98801.56
2022-08-11T05:09:21.008Z,98798.84
2022-08-11T05:12:10.823Z,98793.16
2022-08-11T05:15:05.626Z,98803.16
2022-08-11T05:17:56.337Z,98810.00
2022-08-11T05:20:44.990Z,98805.50
2022-08-11T05:23:33.616Z,98817.72
2022-08-11T05:26:47.542Z,98810.38
2022-08-11T05:30:01.673Z,98816.78
2022-08-11T05:32:58.134Z,98819.94
2022-08-11T05:36:01.800Z,98821.19
2022-08-11T05:38:52.334Z,98820.84
2022-08-11T05:41:40.597Z,98818.13
2022-08-11T05:44:26.429Z,98824.97
2022-08-11T05:47:12.705Z,98823.88
2022-08-11T05:50:00.036Z,98821.56
2022-08-11T05:52:49.338Z,98821.31
2022-08-11T05:56:02.175Z,98833.03
2022-08-11T05:58:41.188Z,98834.94
2022-08-11T06:01:10.566Z,98836.59
2022-08-11T06:03:58.556Z,98829.13
2022-08-11T06:06:29.154Z,98836.81
2022-08-11T06:08:59.318Z,98841.69
2022-08-11T06:11:44.265Z,98835.97
2022-08-11T06:14:13.987Z,98847.16
2022-08-11T06:16:43.700Z,98843.09
2022-08-11T06:19:12.179Z,98843.41
2022-08-11T06:21:46.325Z,98843.09
2022-08-11T06:24:15.463Z,98840.09
2022-08-11T06:27:11.297Z,98841.56
2022-08-11T06:29:47.651Z,98842.38
2022-08-11T06:32:17.450Z,98840.78
2022-08-11T06:35:10.793Z,98841.22
2022-08-11T06:37:49.134Z,98846.19
2022-08-11T06:40:32.397Z,98834.22
2022-08-11T06:43:09.030Z,98834.81
2022-08-11T06:45:47.821Z,98842.22
2022-08-11T06:48:18.380Z,98845.50
2022-08-11T06:51:08.356Z,98846.16
2022-08-11T06:53:40.254Z,98840.44
2022-08-11T06:56:27.572Z,98842.56
2022-08-11T06:59:29.013Z,98848.59
2022-08-11T07:02:06.003Z,98836.03
2022-08-11T07:04:43.654Z,98829.03
2022-08-11T07:07:56.301Z,98837.16
2022-08-11T07:10:52.368Z,98833.56
2022-08-11T07:13:45.367Z,98833.66
2022-08-11T07:16:19.339Z,98837.22
2022-08-11T07:19:16.747Z,98841.78
2022-08-11T07:22:05.031Z,98836.44
2022-08-11T07:24:59.239Z,98828.28
2022-08-11T07:27:55.918Z,98831.00
2022-08-11T07:30:25.905Z,98826.38
2022-08-11T07:32:57.725Z,98827.63
2022-08-11T07:35:32.115Z,98830.44
2022-08-11T07:38:07.164Z,98826.63
2022-08-11T07:40:36.505Z,98827.47
2022-08-11T07:43:06.963Z,98826.63
2022-08-11T07:45:52.949Z,98825.47
2022-08-11T07:48:40.057Z,98822.78
2022-08-11T07:51:25.977Z,98827.94
2022-08-11T07:53:58.647Z,98831.94
2022-08-11T07:56:54.493Z,98834.69
2022-08-11T08:00:04.207Z,98820.00
2022-08-11T08:02:48.701Z,98835.47
2022-08-11T08:05:37.281Z,98824.34
2022-08-11T08:08:23.462Z,98823.53
2022-08-11T08:11:10.552Z,98832.22
2022-08-11T08:13:56.349Z,98828.22
2022-08-11T08:16:42.860Z,98835.41
2022-08-11T08:19:13.699Z,98825.47
2022-08-11T08:21:45.483Z,98825.75
2022-08-11T08:24:14.113Z,98819.06
2022-08-11T08:27:03.110Z,98824.13
2022-08-11T08:29:52.176Z,98824.09
2022-08-11T08:32:21.758Z,98831.09
2022-08-11T08:34:51.634Z,98823.09
2022-08-11T08:37:46.710Z,98824.69
2022-08-11T08:40:16.459Z,98819.09
2022-08-11T08:42:51.709Z,98811.41
2022-08-11T08:45:20.543Z,98811.69
2022-08-11T08:47:54.154Z,98810.03
2022-08-11T08:50:27.871Z,98806.84
2022-08-11T08:53:03.623Z,98807.50
2022-08-11T08:55:33.630Z,98801.31
2022-08-11T08:58:02.053Z,98802.75
2022-08-11T09:00:40.899Z,98799.38
2022-08-11T09:03:36.611Z,98796.13
2022-08-11T09:05:58.685Z,98798.50
2022-08-11T09:08:29.477Z,98803.81
2022-08-11T09:11:16.426Z,98804.19
2022-08-11T09:14:05.671Z,98797.91
2022-08-11T09:16:36.768Z,98782.69
2022-08-11T09:19:05.348Z,98789.69
2022-08-11T09:21:39.437Z,98783.38
2022-08-11T09:24:37.756Z,98773.75
2022-08-11T09:27:08.076Z,98775.19
2022-08-11T09:29:39.057Z,98770.41
2022-08-11T09:32:08.779Z,98781.31
2022-08-11T09:34:38.259Z,98763.66
2022-08-11T09:37:53.308Z,98772.72
2022-08-11T09:40:31.037Z,98775.97
2022-08-11T09:43:18.625Z,98774.69
2022-08-11T09:45:51.552Z,98766.88
2022-08-11T09:48:21.205Z,98759.97
2022-08-11T09:50:51.467Z,98759.16
2022-08-11T09:53:37.238Z,98755.72
2022-08-11T09:56:28.994Z,98745.25
2022-08-11T09:58:57.132Z,98753.81
2022-08-11T10:01:31.247Z,98752.75
2022-08-11T10:04:04.510Z,98754.19
2022-08-11T10:06:54.278Z,98750.56
2022-08-11T10:09:25.631Z,98752.09
2022-08-11T10:11:59.164Z,98746.94
2022-08-11T10:14:48.495Z,98745.06
2022-08-11T10:17:19.608Z,98745.25
2022-08-11T10:20:05.263Z,98746.69
2022-08-11T10:22:54.133Z,98743.16
2022-08-11T10:25:40.479Z,98742.28
2022-08-11T10:28:30.830Z,98728.06
2022-08-11T10:31:18.811Z,98733.56
2022-08-11T10:34:04.375Z,98730.97
2022-08-11T10:36:34.480Z,98726.16
2022-08-11T10:39:05.380Z,98722.78
2022-08-11T10:42:08.247Z,98715.19
2022-08-11T10:44:40.998Z,98715.94
2022-08-11T10:47:29.042Z,98710.50
2022-08-11T10:50:15.908Z,98709.59
2022-08-11T10:53:05.206Z,98703.81
2022-08-11T10:55:51.709Z,98702.28
2022-08-11T10:58:37.595Z,98702.25
2022-08-11T11:01:07.721Z,98706.63
2022-08-11T11:03:37.585Z,98702.66
2022-08-11T11:06:29.235Z,98686.91
2022-08-11T11:09:04.766Z,98688.88
2022-08-11T11:11:55.670Z,98678.28
2022-08-11T11:14:56.407Z,98667.91
2022-08-11T11:17:52.226Z,98667.84
2022-08-11T11:20:36.259Z,98672.91
2022-08-11T11:23:17.688Z,98671.63
2022-08-11T11:26:14.750Z,98671.41
2022-08-11T11:29:06.689Z,98675.63
2022-08-11T11:31:50.564Z,98681.34
2022-08-11T11:34:34.889Z,98670.44
2022-08-11T11:37:04.369Z,98693.34
2022-08-11T11:39:34.190Z,98700.88
2022-08-11T11:42:06.211Z,98699.63
2022-08-11T11:44:35.888Z,98686.69
2022-08-11T11:47:04.192Z,98681.84
2022-08-11T11:49:39.607Z,98684.31
2022-08-11T11:52:09.662Z,98676.78
2022-08-11T11:54:37.802Z,98683.41
2022-08-11T11:57:20.033Z,98668.38
2022-08-11T12:00:07.285Z,98657.69
2022-08-11T12:02:36.982Z,98658.13
2022-08-11T12:05:07.601Z,98647.88
2022-08-11T12:07:56.859Z,98641.59
2022-08-11T12:10:44.370Z,98653.31
2022-08-11T12:13:30.568Z,98642.66
2022-08-11T12:16:33.949Z,98652.97
2022-08-11T12:18:51.893Z,98644.38
2022-08-11T12:21:25.246Z,98643.66
2022-08-11T12:24:11.594Z,98645.06
2022-08-11T12:27:16.656Z,98647.88
2022-08-11T12:29:44.082Z,98636.34
2022-08-11T12:32:13.035Z,98651.91
2022-08-11T12:34:40.988Z,98647.63
2022-08-11T12:37:13.703Z,98650.16
2022-08-11T12:40:17.082Z,98651.88
2022-08-11T12:43:21.096Z,98635.69
2022-08-11T12:45:58.636Z,98632.19
2022-08-11T12:49:00.404Z,98636.38
2022-08-11T12:52:11.286Z,98630.44
2022-08-11T12:54:51.797Z,98623.88
2022-08-11T12:57:44.461Z,98629.22
2022-08-11T13:00:31.057Z,98627.59
2022-08-11T13:03:17.850Z,98631.09
2022-08-11T13:05:49.610Z,98629.81
2022-08-11T13:08:18.768Z,98628.13
2022-08-11T13:11:08.466Z,98629.50
2022-08-11T13:13:55.742Z,98634.91
2022-08-11T13:16:28.817Z,98666.69
2022-08-11T13:18:58.751Z,98676.50
2022-08-11T13:21:28.334Z,98680.28
2022-08-11T13:24:01.179Z,98672.44
2022-08-11T13:26:47.000Z,98677.94
2022-08-11T13:29:20.353Z,98676.28
2022-08-11T13:31:49.730Z,98674.16
2022-08-11T13:34:19.750Z,98686.84
2022-08-11T13:36:51.951Z,98687.19
2022-08-11T13:39:21.224Z,98672.72
2022-08-11T13:41:56.388Z,98680.94
2022-08-11T13:44:27.303Z,98671.41
2022-08-11T13:46:58.405Z,98665.34
2022-08-11T13:49:28.672Z,98675.06
2022-08-11T13:51:57.658Z,98683.81
2022-08-11T13:54:28.487Z,98674.94
2022-08-11T13:57:02.685Z,98669.91
2022-08-11T13:59:31.623Z,98681.81
2022-08-11T14:02:22.552Z,98671.66
2022-08-11T14:04:55.349Z,98677.94
2022-08-11T14:07:25.273Z,98677.59
2022-08-11T14:09:59.485Z,98679.66
2022-08-11T14:12:49.807Z,98654.34
2022-08-11T14:15:21.380Z,98685.31
2022-08-11T14:17:55.274Z,98691.38
2022-08-11T14:20:39.468Z,98684.44
2022-08-11T14:23:13.905Z,98700.50
2022-08-11T14:26:03.689Z,98691.72
2022-08-11T14:28:41.646Z,98689.63
2022-08-11T14:31:12.952Z,98687.69
2022-08-11T14:34:00.851Z,98692.13
2022-08-11T14:36:32.737Z,98683.84
2022-08-11T14:39:04.254Z,98685.22
2022-08-11T14:42:11.844Z,98676.09
2022-08-11T14:45:01.210Z,98684.22
2022-08-11T14:47:31.760Z,98677.13
2022-08-11T14:50:11.108Z,98671.50
2022-08-11T14:52:44.890Z,98668.06
2022-08-11T14:55:32.168Z,98669.19
2022-08-11T14:58:01.730Z,98650.22
2022-08-11T15:00:33.191Z,98652.28
2022-08-11T15:03:10.675Z,98645.50
2022-08-11T15:05:57.112Z,98653.44
2022-08-11T15:08:47.548Z,98642.94
2022-08-11T15:11:36.381Z,98650.41
2022-08-11T15:14:07.948Z,98641.41
2022-08-11T15:16:55.685Z,98644.34
2022-08-11T15:19:40.125Z,98651.78
2022-08-11T15:22:28.634Z,98635.03
2022-08-11T15:24:58.455Z,98635.59
2022-08-11T15:27:46.050Z,98639.41
2022-08-11T15:30:33.276Z,98646.03
2022-08-11T15:33:24.424Z,98650.28
2022-08-11T15:36:10.541Z,98640.47
2022-08-11T15:38:43.323Z,98647.75
2022-08-11T15:41:40.661Z,98651.19
2022-08-11T15:44:58.974Z,98649.19
2022-08-11T15:47:19.588Z,98647.59
2022-08-11T15:50:10.639Z,98641.16
2022-08-11T15:52:48.340Z,98644.44
2022-08-11T15:55:18.027Z,98643.16
2022-08-11T15:58:07.928Z,98634.31
2022-08-11T16:00:58.890Z,98639.91
2022-08-11T16:04:06.632Z,98639.56
2022-08-11T16:06:47.651Z,98631.38
2022-08-11T16:09:23.527Z,98635.06
2022-08-11T16:11:53.582Z,98633.22
2022-08-11T16:14:41.529Z,98633.38
2022-08-11T16:17:12.924Z,98634.19
2022-08-11T16:19:43.802Z,98627.25
2022-08-11T16:22:17.215Z,98624.72
2022-08-11T16:27:05.523Z,98612.19
2022-08-11T16:27:39.659Z,98618.53
2022-08-11T16:30:09.246Z,98618.22
2022-08-11T16:32:41.533Z,98614.75
2022-08-11T16:35:29.569Z,98617.97
2022-08-11T16:38:19.177Z,98624.28
2022-08-11T16:40:49.639Z,98615.28
2022-08-11T16:43:37.831Z,98619.31
2022-08-11T16:46:25.420Z,98609.44
2022-08-11T16:48:55.073Z,98605.81
2022-08-11T16:51:24.017Z,98606.66
2022-08-11T16:54:04.583Z,98606.25
2022-08-11T16:56:38.569Z,98605.84
2022-08-11T16:59:15.609Z,98598.31
2022-08-11T17:01:53.073Z,98599.47
2022-08-11T17:04:48.560Z,98601.78
2022-08-11T17:07:41.480Z,98608.41
2022-08-11T17:10:51.172Z,98604.69
2022-08-11T17:13:28.155Z,98601.03
2022-08-11T17:16:11.972Z,98609.66
2022-08-11T17:18:51.343Z,98603.31
2022-08-11T17:21:24.397Z,98613.41
2022-08-11T17:23:55.041Z,98614.34
2022-08-11T17:26:49.258Z,98600.97
2022-08-11T17:29:19.782Z,98596.41
2022-08-11T17:32:06.448Z,98602.75
2022-08-11T17:34:53.015Z,98607.16
2022-08-11T17:37:22.789Z,98607.56
2022-08-11T17:39:52.351Z,98602.84
2022-08-11T17:42:40.445Z,98596.53
2022-08-11T17:45:28.517Z,98598.84
2022-08-11T17:48:15.089Z,98612.28
2022-08-11T17:50:44.164Z,98616.22
2022-08-11T17:53:33.605Z,98619.38
2022-08-11T17:56:21.144Z,98611.84
2022-08-11T17:59:09.198Z,98606.22
2022-08-11T18:01:39.290Z,98612.91
2022-08-11T18:04:10.999Z,98613.63
2022-08-11T18:06:41.504Z,98611.91
2022-08-11T18:09:30.621Z,98622.94
2022-08-11T18:12:17.934Z,98617.22
2022-08-11T18:15:07.321Z,98637.69
2022-08-11T18:17:54.178Z,98636.69
2022-08-11T18:20:41.299Z,98640.59
2022-08-11T18:23:41.997Z,98640.53
2022-08-11T18:26:36.319Z,98638.75
2022-08-11T18:29:25.020Z,98652.53
2022-08-11T18:32:22.155Z,98644.25
2022-08-11T18:35:13.889Z,98659.94
2022-08-11T18:38:05.822Z,98661.88
2022-08-11T18:40:54.116Z,98650.69
2022-08-11T18:43:43.483Z,98647.53
2022-08-11T18:46:31.581Z,98632.44
2022-08-11T18:49:22.168Z,98632.41
2022-08-11T18:52:11.979Z,98630.50
2022-08-11T18:55:00.409Z,98635.88
2022-08-11T18:57:50.149Z,98625.56
2022-08-11T19:00:41.867Z,98628.00
2022-08-11T19:03:29.888Z,98626.03
2022-08-11T19:06:38.233Z,98620.09
2022-08-11T19:09:31.261Z,98622.50
2022-08-11T19:12:18.053Z,98625.47
2022-08-11T19:15:06.630Z,98618.03
2022-08-11T19:17:55.021Z,98614.38
2022-08-11T19:20:44.031Z,98615.91
2022-08-11T19:23:45.931Z,98612.00
2022-08-11T19:26:33.005Z,98621.44
2022-08-11T19:30:11.298Z,98628.13
2022-08-11T19:32:28.625Z,98620.50
2022-08-11T19:35:15.518Z,98626.78
2022-08-11T19:38:06.128Z,98620.69
2022-08-11T19:40:55.784Z,98606.78
2022-08-11T19:43:43.246Z,98619.38
2022-08-11T19:46:30.500Z,98629.97
2022-08-11T19:49:18.502Z,98627.75
2022-08-11T19:52:04.942Z,98618.56
2022-08-11T19:54:54.513Z,98617.34
2022-08-11T19:57:42.885Z,98613.66
2022-08-11T20:00:32.812Z,98607.22
2022-08-11T20:03:24.431Z,98613.84
2022-08-11T20:06:11.300Z,98616.22
2022-08-11T20:09:00.319Z,98618.47
2022-08-11T20:11:50.222Z,98609.59
2022-08-11T20:14:39.433Z,98612.22
2022-08-11T20:17:27.993Z,98611.81
2022-08-11T20:20:16.217Z,98607.16
2022-08-11T20:23:04.052Z,98603.25
2022-08-11T20:25:53.182Z,98603.25
2022-08-11T20:28:42.162Z,98599.66
2022-08-11T20:31:31.233Z,98597.41
2022-08-11T20:34:18.440Z,98598.03
2022-08-11T20:37:05.341Z,98588.03
2022-08-11T20:39:52.487Z,98606.84
2022-08-11T20:42:39.449Z,98590.94
2022-08-11T20:45:27.386Z,98608.00
2022-08-11T20:48:16.509Z,98612.69
2022-08-11T20:51:06.478Z,98606.78
2022-08-11T20:53:56.607Z,98610.91
2022-08-11T20:56:45.911Z,98619.00
2022-08-11T20:59:33.285Z,98621.75
2022-08-11T21:02:40.850Z,98624.28
2022-08-11T21:06:09.549Z,98619.06
2022-08-11T21:08:39.165Z,98616.28
2022-08-11T21:11:28.366Z,98626.88
2022-08-11T21:14:15.359Z,98632.38
2022-08-11T21:17:04.478Z,98629.91
2022-08-11T21:20:17.067Z,98632.78
2022-08-11T21:23:19.838Z,98631.75
2022-08-11T21:26:21.065Z,98638.91
2022-08-11T21:29:08.712Z,98642.81
2022-08-11T21:31:55.199Z,98644.59
2022-08-11T21:34:42.310Z,98649.66
2022-08-11T21:37:31.086Z,98641.16
2022-08-11T21:40:20.751Z,98648.94
2022-08-11T21:43:10.414Z,98655.41
2022-08-11T21:45:56.966Z,98650.25
2022-08-11T21:48:45.301Z,98647.50
2022-08-11T21:51:30.993Z,98653.19
2022-08-11T21:54:18.429Z,98649.19
2022-08-11T21:57:06.807Z,98656.28
2022-08-11T22:00:00.878Z,98656.72
2022-08-11T22:02:53.049Z,98650.34
2022-08-11T22:05:39.906Z,98646.63
2022-08-11T22:08:27.006Z,98648.59
2022-08-11T22:11:13.398Z,98647.41
2022-08-11T22:14:06.104Z,98650.41
2022-08-11T22:16:54.202Z,98637.38
2022-08-11T22:19:41.876Z,98654.16
2022-08-11T22:22:31.439Z,98642.66
2022-08-11T22:25:18.432Z,98636.06
2022-08-11T22:28:05.054Z,98633.78
2022-08-11T22:30:51.943Z,98628.56
2022-08-11T22:33:42.068Z,98628.63
2022-08-11T22:36:45.784Z,98631.81
2022-08-11T22:39:35.285Z,98614.28
2022-08-11T22:42:24.191Z,98630.34
2022-08-11T22:45:19.725Z,98624.75
2022-08-11T22:48:07.637Z,98632.97
2022-08-11T22:50:55.342Z,98630.22
2022-08-11T22:53:57.682Z,98635.72
2022-08-11T22:56:46.142Z,98626.84
2022-08-11T22:59:32.934Z,98629.56
2022-08-11T23:02:19.813Z,98621.47
2022-08-11T23:05:07.707Z,98620.69
2022-08-11T23:07:54.468Z,98621.09
2022-08-11T23:10:41.378Z,98615.88
2022-08-11T23:13:27.884Z,98614.28
2022-08-11T23:16:14.219Z,98603.34
2022-08-11T23:19:00.757Z,98605.44
2022-08-11T23:21:47.997Z,98614.22
2022-08-11T23:24:35.310Z,98605.03
2022-08-11T23:27:21.639Z,98612.00
2022-08-11T23:30:09.534Z,98595.03
2022-08-11T23:32:55.768Z,98603.22
2022-08-11T23:35:53.890Z,98597.06
2022-08-11T23:38:45.074Z,98600.72
2022-08-11T23:41:32.909Z,98595.47
2022-08-11T23:44:19.766Z,98588.09
2022-08-11T23:47:08.206Z,98570.22
2022-08-11T23:49:55.900Z,98596.66
2022-08-11T23:52:45.766Z,98588.91
2022-08-11T23:55:33.285Z,98589.16
2022-08-11T23:58:19.789Z,98589.56
